Time;durP1;ratioP1;P1;durP2;ratioP2;P2;SDS_P1;SDS_P2;PMS_P1;PMS_P2;Temp;Humidity;BMP_temperature;BMP_pressure;BME280_temperature;BME280_humidity;BME280_pressure;Samples;Min_cycle;Max_cycle;Signal;HPM_P1;HPM_P2
2023/12/17 00:00:45;;;;;;;0.10;0.10;;;;;;;;;;5052925;28;20041;-80
2023/12/17 00:03:12;;;;;;;0.88;0.88;;;;;;;;;;5047939;28;20072;-79
2023/12/17 00:05:48;;;;;;;2.47;2.03;;;;;;;;;;5051039;28;20478;-80
2023/12/17 00:08:20;;;;;;;1.23;0.90;;;;;;;;;;5046065;28;20049;-80
2023/12/17 00:10:49;;;;;;;0.63;0.63;;;;;;;;;;5040829;28;20127;-80
2023/12/17 00:13:16;;;;;;;1.45;1.17;;;;;;;;;;5044832;28;20060;-79
2023/12/17 00:15:44;;;;;;;0.22;0.22;;;;;;;;;;5044867;28;20044;-80
2023/12/17 00:18:12;;;;;;;1.40;1.30;;;;;;;;;;5054926;28;20049;-79
2023/12/17 00:20:40;;;;;;;0.88;0.80;;;;;;;;;;5052433;28;20095;-81
2023/12/17 00:23:08;;;;;;;3.83;2.70;;;;;;;;;;5051296;28;20041;-80
2023/12/17 00:25:35;;;;;;;0.55;0.55;;;;;;;;;;5056744;28;20048;-80
2023/12/17 00:28:03;;;;;;;0.70;0.70;;;;;;;;;;5050806;28;20720;-79
2023/12/17 00:30:30;;;;;;;9.32;5.60;;;;;;;;;;5043510;28;20037;-79
2023/12/17 00:32:57;;;;;;;1.55;1.45;;;;;;;;;;5055506;28;20077;-80
2023/12/17 00:35:25;;;;;;;0.22;0.22;;;;;;;;;;5053097;28;20059;-80
2023/12/17 00:37:52;;;;;;;2.97;2.17;;;;;;;;;;5056864;28;20052;-80
2023/12/17 00:40:20;;;;;;;4.25;2.40;;;;;;;;;;5053761;28;20418;-80
2023/12/17 00:42:47;;;;;;;1.73;1.63;;;;;;;;;;5052796;28;20128;-80
2023/12/17 00:45:14;;;;;;;0.30;0.30;;;;;;;;;;5053338;28;20178;-80
2023/12/17 00:47:42;;;;;;;0.30;0.20;;;;;;;;;;5043085;28;20076;-80
2023/12/17 00:50:10;;;;;;;5.63;2.05;;;;;;;;;;5050486;28;20049;-79
2023/12/17 00:52:37;;;;;;;0.22;0.22;;;;;;;;;;5059728;28;20051;-79
2023/12/17 00:55:05;;;;;;;0.35;0.35;;;;;;;;;;5057875;28;20045;-79
2023/12/17 00:57:35;;;;;;;0.28;0.28;;;;;;;;;;5054060;28;20051;-80
2023/12/17 01:00:03;;;;;;;0.43;0.43;;;;;;;;;;5047607;28;20104;-79
2023/12/17 01:02:31;;;;;;;3.10;1.80;;;;;;;;;;5046339;28;20053;-80
2023/12/17 01:04:59;;;;;;;0.95;0.95;;;;;;;;;;5044107;28;20426;-80
2023/12/17 01:07:26;;;;;;;1.63;1.58;;;;;;;;;;5047610;28;20044;-80
2023/12/17 01:09:53;;;;;;;1.08;1.08;;;;;;;;;;5057782;28;20075;-81
2023/12/17 01:12:21;;;;;;;1.65;1.33;;;;;;;;;;5053899;28;20120;-80
2023/12/17 01:14:48;;;;;;;1.80;1.70;;;;;;;;;;5059789;28;20517;-80
2023/12/17 01:17:15;;;;;;;2.75;2.55;;;;;;;;;;5057238;28;20067;-80
2023/12/17 01:19:43;;;;;;;1.02;0.90;;;;;;;;;;5054724;28;20506;-80
2023/12/17 01:22:10;;;;;;;1.13;1.08;;;;;;;;;;5061884;28;20045;-80
2023/12/17 01:24:39;;;;;;;1.30;1.20;;;;;;;;;;5061301;28;20102;-81
2023/12/17 01:27:06;;;;;;;1.63;1.52;;;;;;;;;;5061875;28;20418;-80
2023/12/17 01:29:36;;;;;;;1.20;1.10;;;;;;;;;;5055546;28;20044;-79
2023/12/17 01:32:04;;;;;;;1.40;1.30;;;;;;;;;;5054461;28;20285;-80
2023/12/17 01:34:31;;;;;;;4.28;3.72;;;;;;;;;;5064923;28;20083;-80
2023/12/17 01:36:59;;;;;;;2.42;2.22;;;;;;;;;;5062347;28;20053;-80
2023/12/17 01:39:26;;;;;;;4.28;2.40;;;;;;;;;;5056432;28;20079;-80
2023/12/17 01:41:53;;;;;;;1.73;1.63;;;;;;;;;;5052416;28;20041;-79
2023/12/17 01:44:22;;;;;;;4.32;3.70;;;;;;;;;;5064556;28;20029;-80
2023/12/17 01:46:49;;;;;;;3.38;3.10;;;;;;;;;;5053898;28;20043;-80
2023/12/17 01:49:17;;;;;;;5.88;4.18;;;;;;;;;;5053636;28;20029;-79
2023/12/17 01:51:44;;;;;;;3.05;1.95;;;;;;;;;;5056176;28;20067;-79
2023/12/17 01:54:12;;;;;;;0.10;0.10;;;;;;;;;;5068749;28;20091;-80
2023/12/17 01:56:39;;;;;;;0.73;0.73;;;;;;;;;;5055082;28;20053;-80
2023/12/17 01:59:08;;;;;;;1.30;1.23;;;;;;;;;;5064825;28;20084;-79
2023/12/17 02:01:36;;;;;;;2.53;2.33;;;;;;;;;;5055409;28;20453;-79
2023/12/17 02:04:06;;;;;;;1.52;1.42;;;;;;;;;;5062656;28;20161;-80
2023/12/17 02:06:34;;;;;;;0.75;0.75;;;;;;;;;;5058732;28;20053;-80
2023/12/17 02:09:01;;;;;;;0.10;0.10;;;;;;;;;;5055440;28;20044;-81
2023/12/17 02:11:28;;;;;;;0.32;0.32;;;;;;;;;;5046590;28;20187;-78
2023/12/17 02:13:56;;;;;;;0.98;0.98;;;;;;;;;;5058222;28;20055;-78
2023/12/17 02:16:23;;;;;;;2.08;1.98;;;;;;;;;;5057473;28;20048;-78
2023/12/17 02:18:50;;;;;;;0.20;0.20;;;;;;;;;;5049841;28;20067;-79
2023/12/17 02:21:18;;;;;;;0.73;0.73;;;;;;;;;;5048841;28;20509;-80
2023/12/17 02:23:45;;;;;;;1.20;0.90;;;;;;;;;;5059244;28;20131;-80
2023/12/17 02:26:13;;;;;;;0.20;0.20;;;;;;;;;;5061256;28;20583;-80
2023/12/17 02:28:40;;;;;;;0.50;0.50;;;;;;;;;;5055004;28;20037;-80
2023/12/17 02:31:08;;;;;;;1.73;1.35;;;;;;;;;;5058082;28;20461;-80
2023/12/17 02:33:35;;;;;;;0.57;0.28;;;;;;;;;;5052636;28;20045;-80
2023/12/17 02:36:03;;;;;;;0.20;0.20;;;;;;;;;;5057254;28;20057;-80
2023/12/17 02:38:30;;;;;;;4.95;4.18;;;;;;;;;;5061756;28;20087;-80
2023/12/17 02:40:57;;;;;;;3.40;0.50;;;;;;;;;;5053235;28;20095;-79
2023/12/17 02:43:25;;;;;;;6.00;3.80;;;;;;;;;;5053527;28;20041;-80
2023/12/17 02:45:52;;;;;;;0.65;0.65;;;;;;;;;;5053261;28;20081;-80
2023/12/17 02:48:19;;;;;;;1.40;1.30;;;;;;;;;;5050455;28;20056;-80
2023/12/17 02:50:47;;;;;;;0.40;0.40;;;;;;;;;;5055638;28;20557;-80
2023/12/17 02:53:15;;;;;;;0.10;0.10;;;;;;;;;;5058470;28;20074;-80
2023/12/17 02:55:42;;;;;;;0.25;0.25;;;;;;;;;;5069252;28;20041;-80
2023/12/17 02:58:09;;;;;;;0.10;0.10;;;;;;;;;;5055573;28;20049;-80
2023/12/17 03:03:32;;;;;;;1.23;0.75;;;;;;;;;;5044146;28;20413;-75
2023/12/17 03:06:00;;;;;;;0.40;0.40;;;;;;;;;;5039530;28;20057;-75
2023/12/17 03:08:28;;;;;;;0.10;0.10;;;;;;;;;;5039343;28;20048;-74
2023/12/17 03:10:55;;;;;;;0.10;0.10;;;;;;;;;;5058932;28;20910;-75
2023/12/17 03:13:23;;;;;;;5.05;2.97;;;;;;;;;;5044079;28;20045;-74
2023/12/17 03:15:50;;;;;;;1.85;0.85;;;;;;;;;;5054207;28;20161;-74
2023/12/17 03:18:18;;;;;;;0.22;0.22;;;;;;;;;;5040843;28;20053;-74
2023/12/17 03:20:46;;;;;;;0.10;0.10;;;;;;;;;;5056782;28;20122;-75
2023/12/17 03:23:15;;;;;;;6.22;2.35;;;;;;;;;;5044502;28;20064;-74
2023/12/17 03:25:43;;;;;;;0.32;0.32;;;;;;;;;;5049813;28;20048;-75
2023/12/17 03:28:10;;;;;;;0.55;0.55;;;;;;;;;;5041429;28;20053;-75
2023/12/17 03:30:38;;;;;;;0.52;0.52;;;;;;;;;;5051788;28;20049;-75
2023/12/17 03:33:05;;;;;;;0.10;0.10;;;;;;;;;;5042148;28;20048;-75
2023/12/17 03:35:33;;;;;;;0.10;0.10;;;;;;;;;;5043901;28;20041;-74
2023/12/17 03:38:01;;;;;;;0.10;0.10;;;;;;;;;;5049185;28;20059;-75
2023/12/17 03:40:28;;;;;;;0.10;0.10;;;;;;;;;;5054300;28;20109;-75
2023/12/17 03:42:56;;;;;;;21.92;0.88;;;;;;;;;;5047157;28;20056;-75
2023/12/17 03:45:23;;;;;;;2.42;1.38;;;;;;;;;;5045755;28;20049;-75
2023/12/17 03:47:51;;;;;;;0.77;0.77;;;;;;;;;;5034738;28;20064;-74
2023/12/17 03:50:20;;;;;;;3.55;1.88;;;;;;;;;;5026144;28;20438;-75
2023/12/17 03:52:48;;;;;;;0.00;0.00;;;;;;;;;;5059215;28;20059;-75
2023/12/17 03:55:15;;;;;;;0.25;0.25;;;;;;;;;;5051854;28;20051;-75
2023/12/17 03:57:43;;;;;;;0.10;0.10;;;;;;;;;;5055862;28;20052;-74
2023/12/17 04:00:11;;;;;;;0.65;0.65;;;;;;;;;;5044340;28;20056;-76
2023/12/17 04:02:38;;;;;;;0.10;0.10;;;;;;;;;;5053762;28;20125;-76
2023/12/17 04:05:06;;;;;;;1.75;1.38;;;;;;;;;;5043823;28;20494;-76
2023/12/17 04:07:34;;;;;;;0.40;0.40;;;;;;;;;;5043840;28;20061;-76
2023/12/17 04:10:02;;;;;;;0.13;0.13;;;;;;;;;;5038549;28;20049;-75
2023/12/17 04:12:30;;;;;;;0.13;0.13;;;;;;;;;;5056653;28;20052;-75
2023/12/17 04:14:57;;;;;;;0.10;0.10;;;;;;;;;;5042829;28;20056;-75
2023/12/17 04:17:25;;;;;;;0.10;0.10;;;;;;;;;;5052644;28;20044;-75
2023/12/17 04:19:53;;;;;;;0.10;0.10;;;;;;;;;;5039535;28;20073;-76
2023/12/17 04:22:20;;;;;;;0.00;0.00;;;;;;;;;;5044230;28;20041;-75
2023/12/17 04:24:48;;;;;;;0.32;0.32;;;;;;;;;;5043133;28;20047;-74
2023/12/17 04:27:15;;;;;;;0.10;0.10;;;;;;;;;;5030454;28;20037;-75
2023/12/17 04:29:43;;;;;;;0.40;0.40;;;;;;;;;;5045709;28;20061;-74
2023/12/17 04:32:11;;;;;;;0.57;0.50;;;;;;;;;;5055511;28;20053;-75
2023/12/17 04:34:39;;;;;;;1.00;1.00;;;;;;;;;;5022688;28;20056;-76
2023/12/17 04:37:06;;;;;;;1.25;1.23;;;;;;;;;;5050903;28;20059;-72
2023/12/17 04:39:33;;;;;;;2.05;0.75;;;;;;;;;;5035893;28;20495;-76
2023/12/17 04:42:01;;;;;;;0.63;0.63;;;;;;;;;;5046993;28;20053;-76
2023/12/17 04:44:28;;;;;;;0.10;0.10;;;;;;;;;;5037538;28;20061;-73
2023/12/17 04:46:57;;;;;;;2.40;1.85;;;;;;;;;;5046011;28;20037;-73
2023/12/17 04:49:25;;;;;;;1.75;1.65;;;;;;;;;;5050876;28;20120;-74
2023/12/17 04:51:52;;;;;;;0.10;0.10;;;;;;;;;;5048644;28;20048;-72
2023/12/17 04:54:20;;;;;;;0.20;0.20;;;;;;;;;;5032747;28;20046;-74
2023/12/17 04:56:48;;;;;;;0.10;0.10;;;;;;;;;;5040687;28;20048;-73
2023/12/17 04:59:16;;;;;;;0.70;0.50;;;;;;;;;;5036178;28;20989;-74
2023/12/17 05:01:43;;;;;;;1.75;1.65;;;;;;;;;;5043500;28;20107;-73
2023/12/17 05:04:11;;;;;;;2.65;2.45;;;;;;;;;;5046166;28;20221;-73
2023/12/17 05:06:39;;;;;;;2.10;1.25;;;;;;;;;;5040645;28;20537;-73
2023/12/17 05:09:16;;;;;;;2.83;2.22;;;;;;;;;;5036182;28;20063;-73
2023/12/17 05:11:44;;;;;;;0.30;0.30;;;;;;;;;;5036725;28;20063;-73
2023/12/17 05:14:12;;;;;;;6.35;5.22;;;;;;;;;;5040488;28;20321;-73
2023/12/17 05:16:41;;;;;;;3.65;3.33;;;;;;;;;;5056840;28;20414;-73
2023/12/17 05:19:09;;;;;;;3.70;2.45;;;;;;;;;;5043787;28;20084;-73
2023/12/17 05:21:37;;;;;;;0.45;0.45;;;;;;;;;;5037483;28;20507;-73
2023/12/17 05:24:05;;;;;;;0.73;0.73;;;;;;;;;;5047777;28;20532;-73
2023/12/17 05:26:32;;;;;;;2.47;2.28;;;;;;;;;;5045201;28;20418;-74
2023/12/17 05:29:00;;;;;;;0.10;0.10;;;;;;;;;;5037115;28;20052;-74
2023/12/17 05:31:27;;;;;;;0.43;0.43;;;;;;;;;;5054671;28;20159;-74
2023/12/17 05:33:55;;;;;;;0.43;0.40;;;;;;;;;;5040316;28;20098;-73
2023/12/17 05:36:22;;;;;;;0.47;0.47;;;;;;;;;;5048129;28;20053;-74
2023/12/17 05:38:51;;;;;;;1.00;0.98;;;;;;;;;;5038003;28;20064;-73
2023/12/17 05:41:18;;;;;;;0.10;0.10;;;;;;;;;;5044643;28;22001;-74
2023/12/17 05:43:46;;;;;;;2.00;1.90;;;;;;;;;;5020670;28;20054;-74
2023/12/17 05:46:13;;;;;;;2.72;2.53;;;;;;;;;;5026371;28;20864;-73
2023/12/17 05:48:41;;;;;;;0.70;0.70;;;;;;;;;;5029364;28;20513;-74
2023/12/17 05:51:09;;;;;;;8.73;2.53;;;;;;;;;;5050211;28;20072;-74
2023/12/17 05:53:37;;;;;;;2.58;2.35;;;;;;;;;;5048358;28;20110;-74
2023/12/17 05:56:13;;;;;;;0.52;0.52;;;;;;;;;;5028611;28;20049;-74
2023/12/17 05:58:41;;;;;;;1.48;0.82;;;;;;;;;;5038469;28;20045;-73
2023/12/17 06:01:09;;;;;;;0.57;0.57;;;;;;;;;;5040671;28;20049;-74
2023/12/17 06:03:38;;;;;;;0.28;0.28;;;;;;;;;;5028812;28;20055;-73
2023/12/17 06:06:07;;;;;;;0.10;0.10;;;;;;;;;;5020837;28;20040;-74
2023/12/17 06:08:35;;;;;;;0.30;0.30;;;;;;;;;;5035814;28;20049;-73
2023/12/17 06:11:06;;;;;;;5.78;3.25;;;;;;;;;;5028434;28;20555;-74
2023/12/17 06:13:37;;;;;;;0.63;0.63;;;;;;;;;;5024658;28;20045;-74
2023/12/17 06:16:05;;;;;;;1.27;1.27;;;;;;;;;;5048818;28;20558;-75
2023/12/17 06:18:32;;;;;;;0.60;0.60;;;;;;;;;;5042940;28;20052;-75
2023/12/17 06:21:01;;;;;;;1.77;1.55;;;;;;;;;;5042301;28;20045;-74
2023/12/17 06:23:30;;;;;;;2.67;2.53;;;;;;;;;;5046579;28;20477;-73
2023/12/17 06:25:58;;;;;;;0.60;0.60;;;;;;;;;;5040447;28;20428;-75
2023/12/17 06:28:26;;;;;;;3.60;2.28;;;;;;;;;;5036504;28;20052;-74
2023/12/17 06:30:54;;;;;;;1.88;1.73;;;;;;;;;;5050840;28;20051;-74
2023/12/17 06:33:21;;;;;;;5.97;1.13;;;;;;;;;;5048959;28;20117;-74
2023/12/17 06:35:49;;;;;;;0.10;0.10;;;;;;;;;;5042739;28;20286;-75
2023/12/17 06:38:17;;;;;;;8.27;4.85;;;;;;;;;;5042524;28;20127;-75
2023/12/17 06:40:44;;;;;;;1.13;1.08;;;;;;;;;;5019269;28;20057;-75
2023/12/17 06:43:12;;;;;;;0.52;0.52;;;;;;;;;;5025864;28;20053;-75
2023/12/17 06:45:40;;;;;;;1.33;1.23;;;;;;;;;;5055615;28;20118;-74
2023/12/17 06:48:08;;;;;;;1.55;1.45;;;;;;;;;;5046797;28;20353;-75
2023/12/17 06:50:38;;;;;;;1.95;1.45;;;;;;;;;;5049374;28;20037;-75
2023/12/17 06:53:05;;;;;;;1.35;1.35;;;;;;;;;;5045538;28;20056;-74
2023/12/17 06:55:33;;;;;;;4.38;2.70;;;;;;;;;;5039500;28;20038;-75
2023/12/17 06:58:00;;;;;;;1.67;1.55;;;;;;;;;;5028910;28;20375;-74
2023/12/17 07:00:34;;;;;;;4.22;1.77;;;;;;;;;;5023456;28;20056;-74
2023/12/17 07:03:03;;;;;;;2.03;1.02;;;;;;;;;;5037615;28;20045;-75
2023/12/17 07:05:30;;;;;;;0.10;0.10;;;;;;;;;;5040958;28;20051;-75
2023/12/17 07:07:58;;;;;;;0.52;0.52;;;;;;;;;;5051017;28;20366;-75
2023/12/17 07:10:25;;;;;;;1.15;1.15;;;;;;;;;;5024001;28;20063;-74
2023/12/17 07:12:53;;;;;;;0.00;0.00;;;;;;;;;;5046703;28;20057;-75
2023/12/17 07:15:20;;;;;;;1.05;0.95;;;;;;;;;;5047635;28;20056;-75
2023/12/17 07:17:48;;;;;;;2.47;2.28;;;;;;;;;;5040450;28;20037;-74
2023/12/17 07:20:16;;;;;;;0.17;0.17;;;;;;;;;;5042662;28;20163;-75
2023/12/17 07:22:43;;;;;;;1.13;1.02;;;;;;;;;;5051970;28;20195;-75
2023/12/17 07:25:11;;;;;;;0.73;0.73;;;;;;;;;;5041290;28;20057;-75
2023/12/17 07:27:39;;;;;;;1.85;1.73;;;;;;;;;;5045295;28;20037;-75
2023/12/17 07:30:07;;;;;;;0.20;0.20;;;;;;;;;;5022644;28;20075;-75
2023/12/17 07:32:34;;;;;;;3.40;1.70;;;;;;;;;;5036980;28;20537;-75
2023/12/17 07:35:03;;;;;;;2.97;1.88;;;;;;;;;;5040715;28;20554;-75
2023/12/17 07:37:31;;;;;;;1.95;1.75;;;;;;;;;;5045288;28;20730;-75
2023/12/17 07:39:58;;;;;;;2.45;1.30;;;;;;;;;;5033236;28;20095;-75
2023/12/17 07:42:26;;;;;;;0.65;0.65;;;;;;;;;;5024814;28;20060;-75
2023/12/17 07:44:53;;;;;;;3.00;2.75;;;;;;;;;;5029530;28;20036;-75
2023/12/17 07:47:21;;;;;;;3.25;0.95;;;;;;;;;;5038410;28;20708;-75
2023/12/17 07:49:49;;;;;;;0.75;0.60;;;;;;;;;;5041416;28;20044;-76
2023/12/17 07:52:16;;;;;;;5.65;3.50;;;;;;;;;;5048531;28;20048;-75
2023/12/17 07:54:43;;;;;;;4.22;3.15;;;;;;;;;;5039494;28;20053;-75
2023/12/17 07:57:11;;;;;;;2.50;2.22;;;;;;;;;;5042092;28;20498;-74
2023/12/17 07:59:39;;;;;;;3.80;2.15;;;;;;;;;;5042566;28;20604;-75
2023/12/17 08:02:06;;;;;;;1.70;1.35;;;;;;;;;;5030546;28;20053;-75
2023/12/17 08:04:36;;;;;;;1.38;1.08;;;;;;;;;;5041134;28;20049;-75
2023/12/17 08:07:04;;;;;;;1.25;1.20;;;;;;;;;;5044212;28;20041;-74
2023/12/17 08:09:35;;;;;;;5.35;4.57;;;;;;;;;;5037435;28;20411;-76
2023/12/17 08:12:10;;;;;;;8.02;2.95;;;;;;;;;;5046979;28;20067;-74
2023/12/17 08:14:41;;;;;;;8.00;2.03;;;;;;;;;;5023549;28;20046;-75
2023/12/17 08:17:09;;;;;;;0.52;0.52;;;;;;;;;;5046666;28;20045;-76
2023/12/17 08:19:38;;;;;;;1.33;1.27;;;;;;;;;;5003948;28;20099;-76
2023/12/17 08:22:06;;;;;;;0.40;0.40;;;;;;;;;;5035620;28;20519;-76
2023/12/17 08:24:34;;;;;;;3.30;0.77;;;;;;;;;;5049057;28;20037;-76
2023/12/17 08:27:02;;;;;;;0.70;0.70;;;;;;;;;;5036707;28;20330;-76
2023/12/17 08:29:30;;;;;;;0.90;0.90;;;;;;;;;;5038835;28;20414;-76
2023/12/17 08:31:57;;;;;;;2.78;2.10;;;;;;;;;;5041902;28;20117;-75
2023/12/17 08:34:27;;;;;;;0.70;0.70;;;;;;;;;;5041342;28;20114;-77
2023/12/17 08:36:54;;;;;;;3.45;1.70;;;;;;;;;;5049238;28;20101;-73
2023/12/17 08:39:23;;;;;;;0.63;0.40;;;;;;;;;;5049019;28;20048;-74
2023/12/17 08:41:51;;;;;;;1.75;1.15;;;;;;;;;;5028824;28;20053;-74
2023/12/17 08:44:22;;;;;;;1.33;0.85;;;;;;;;;;5049161;28;20048;-74
2023/12/17 08:46:51;;;;;;;1.60;1.50;;;;;;;;;;5041737;28;20627;-74
2023/12/17 08:49:18;;;;;;;1.65;0.98;;;;;;;;;;5043720;28;20044;-74
2023/12/17 08:51:46;;;;;;;1.13;0.88;;;;;;;;;;5050893;28;20059;-74
2023/12/17 08:54:14;;;;;;;0.73;0.73;;;;;;;;;;5041741;28;20057;-73
2023/12/17 08:56:42;;;;;;;0.82;0.82;;;;;;;;;;5033634;28;20762;-74
2023/12/17 08:59:09;;;;;;;2.45;2.25;;;;;;;;;;5031262;28;20048;-73
2023/12/17 09:01:37;;;;;;;2.10;1.90;;;;;;;;;;5045288;23;20041;-83
2023/12/17 09:04:04;;;;;;;0.50;0.50;;;;;;;;;;5030834;28;20048;-84
2023/12/17 09:06:32;;;;;;;3.60;2.13;;;;;;;;;;5057481;28;20045;-84
2023/12/17 09:08:59;;;;;;;5.60;3.00;;;;;;;;;;5031668;28;20411;-85
2023/12/17 09:11:26;;;;;;;0.43;0.43;;;;;;;;;;5034030;28;20049;-84
2023/12/17 09:13:54;;;;;;;2.00;0.70;;;;;;;;;;5025005;28;20483;-85
2023/12/17 09:16:21;;;;;;;1.27;1.17;;;;;;;;;;5026051;28;20368;-84
2023/12/17 09:18:49;;;;;;;1.30;1.17;;;;;;;;;;5048334;28;20079;-84
2023/12/17 09:21:17;;;;;;;2.08;1.02;;;;;;;;;;5040098;28;20508;-85
2023/12/17 09:23:44;;;;;;;1.92;1.60;;;;;;;;;;5026441;28;20537;-84
2023/12/17 09:26:12;;;;;;;0.52;0.52;;;;;;;;;;5000896;28;20076;-84
2023/12/17 09:28:39;;;;;;;1.67;1.58;;;;;;;;;;5046469;28;20045;-85
2023/12/17 09:31:08;;;;;;;1.17;1.08;;;;;;;;;;5028111;28;20040;-84
2023/12/17 09:33:36;;;;;;;0.10;0.10;;;;;;;;;;5045594;28;20049;-84
2023/12/17 09:36:05;;;;;;;5.57;1.38;;;;;;;;;;5042741;28;20048;-84
2023/12/17 09:38:33;;;;;;;3.30;1.63;;;;;;;;;;5044991;28;20160;-84
2023/12/17 09:41:00;;;;;;;0.70;0.70;;;;;;;;;;5042246;28;20061;-84
2023/12/17 09:43:27;;;;;;;0.20;0.20;;;;;;;;;;5035835;28;20372;-84
2023/12/17 09:45:55;;;;;;;0.52;0.52;;;;;;;;;;5038772;28;20506;-84
2023/12/17 09:48:23;;;;;;;0.47;0.43;;;;;;;;;;5029443;28;20049;-84
2023/12/17 09:50:51;;;;;;;2.85;0.68;;;;;;;;;;5039296;28;20127;-84
2023/12/17 09:53:19;;;;;;;0.88;0.88;;;;;;;;;;5019317;28;20072;-84
2023/12/17 09:55:46;;;;;;;2.33;1.38;;;;;;;;;;5040793;28;20036;-84
2023/12/17 09:58:13;;;;;;;3.28;2.03;;;;;;;;;;5006996;28;20098;-84
2023/12/17 10:00:44;;;;;;;1.92;0.98;;;;;;;;;;5022718;28;20053;-86
2023/12/17 10:03:14;;;;;;;1.95;0.60;;;;;;;;;;5017792;28;20050;-85
2023/12/17 10:05:49;;;;;;;0.90;0.90;;;;;;;;;;5036280;28;20048;-86
2023/12/17 10:08:17;;;;;;;4.82;1.95;;;;;;;;;;5017973;28;20430;-86
2023/12/17 10:10:45;;;;;;;1.58;1.23;;;;;;;;;;5037549;28;20052;-85
2023/12/17 10:13:19;;;;;;;2.67;1.95;;;;;;;;;;5036520;28;20049;-85
2023/12/17 10:15:50;;;;;;;7.82;5.45;;;;;;;;;;5018332;28;20411;-86
2023/12/17 10:18:18;;;;;;;6.82;5.32;;;;;;;;;;5036546;28;20418;-86
2023/12/17 10:20:47;;;;;;;5.55;4.10;;;;;;;;;;5019621;28;20052;-85
2023/12/17 10:23:15;;;;;;;2.15;2.00;;;;;;;;;;5022266;28;20045;-85
2023/12/17 10:25:43;;;;;;;0.13;0.13;;;;;;;;;;5032961;28;20037;-86
2023/12/17 10:28:11;;;;;;;1.65;1.08;;;;;;;;;;5035611;28;20049;-86
2023/12/17 10:30:41;;;;;;;1.58;1.48;;;;;;;;;;5017401;28;20049;-86
2023/12/17 10:33:14;;;;;;;3.25;1.90;;;;;;;;;;5021382;28;20052;-86
2023/12/17 10:35:42;;;;;;;2.47;1.58;;;;;;;;;;5020673;28;20048;-85
2023/12/17 10:38:10;;;;;;;3.30;1.73;;;;;;;;;;5034129;28;20055;-87
2023/12/17 10:40:40;;;;;;;2.50;1.95;;;;;;;;;;5016343;28;20051;-86
2023/12/17 10:43:07;;;;;;;4.18;2.70;;;;;;;;;;5051007;28;20052;-85
2023/12/17 10:45:35;;;;;;;3.35;2.78;;;;;;;;;;5026582;28;21730;-85
2023/12/17 10:48:03;;;;;;;16.02;7.05;;;;;;;;;;5019399;28;20044;-86
2023/12/17 10:50:33;;;;;;;3.45;2.83;;;;;;;;;;5036030;28;20041;-86
2023/12/17 10:53:01;;;;;;;5.30;3.88;;;;;;;;;;5039122;28;20554;-85
2023/12/17 10:55:28;;;;;;;2.00;1.67;;;;;;;;;;5036835;28;20041;-85
2023/12/17 10:58:02;;;;;;;1.92;1.77;;;;;;;;;;5026631;28;20471;-84
2023/12/17 11:00:32;;;;;;;6.68;4.68;;;;;;;;;;5041106;28;20045;-85
2023/12/17 11:03:04;;;;;;;2.15;2.05;;;;;;;;;;5025515;28;20045;-85
2023/12/17 11:05:31;;;;;;;3.63;1.08;;;;;;;;;;5037232;28;20687;-86
2023/12/17 11:08:01;;;;;;;0.30;0.30;;;;;;;;;;5040684;28;20064;-86
2023/12/17 11:10:43;;;;;;;2.35;2.15;;;;;;;;;;5037534;28;20490;-87
2023/12/17 11:13:33;;;;;;;7.43;4.38;;;;;;;;;;5039678;28;20074;-89
2023/12/17 11:16:31;;;;;;;0.93;0.93;;;;;;;;;;5039233;28;20064;-87
2023/12/17 11:19:04;;;;;;;1.88;1.77;;;;;;;;;;5007327;28;20045;-87
2023/12/17 11:21:56;;;;;;;2.67;2.38;;;;;;;;;;5012832;28;20153;-87
2023/12/17 11:24:26;;;;;;;3.10;1.67;;;;;;;;;;5039116;28;20049;-88
2023/12/17 11:27:04;;;;;;;0.63;0.63;;;;;;;;;;5039912;28;20482;-93
2023/12/17 11:29:50;;;;;;;4.47;1.63;;;;;;;;;;5037646;28;20448;-86
2023/12/17 11:32:24;;;;;;;3.13;2.90;;;;;;;;;;5051046;23;20068;-73
2023/12/17 11:34:52;;;;;;;1.63;1.52;;;;;;;;;;5037282;28;20130;-73
2023/12/17 11:37:21;;;;;;;2.60;2.40;;;;;;;;;;5023521;28;20064;-73
2023/12/17 11:39:50;;;;;;;2.42;2.05;;;;;;;;;;5035527;28;20049;-73
2023/12/17 11:42:18;;;;;;;2.20;1.98;;;;;;;;;;5026140;28;20072;-73
2023/12/17 11:44:46;;;;;;;2.13;1.92;;;;;;;;;;5038077;28;20514;-72
2023/12/17 11:47:14;;;;;;;2.20;2.05;;;;;;;;;;5040767;28;20080;-72
2023/12/17 11:49:42;;;;;;;4.32;2.83;;;;;;;;;;5032964;28;20160;-73
2023/12/17 11:52:12;;;;;;;0.60;0.60;;;;;;;;;;5040637;28;20482;-73
2023/12/17 11:54:40;;;;;;;0.65;0.65;;;;;;;;;;5036583;28;20219;-73
2023/12/17 11:57:19;;;;;;;1.00;1.00;;;;;;;;;;5039390;28;20094;-73
2023/12/17 11:59:48;;;;;;;0.68;0.68;;;;;;;;;;5036722;28;20229;-73
2023/12/17 12:02:17;;;;;;;3.33;1.25;;;;;;;;;;5037678;28;20057;-72
2023/12/17 12:04:45;;;;;;;2.17;1.30;;;;;;;;;;5041549;28;20041;-73
2023/12/17 12:07:20;;;;;;;0.80;0.80;;;;;;;;;;5041746;28;20060;-73
2023/12/17 12:09:49;;;;;;;1.00;0.88;;;;;;;;;;5032997;28;20139;-72
2023/12/17 12:12:16;;;;;;;4.47;4.05;;;;;;;;;;5036597;28;20050;-73
2023/12/17 12:14:45;;;;;;;2.30;2.15;;;;;;;;;;5036657;28;20713;-71
2023/12/17 12:17:31;;;;;;;6.75;4.90;;;;;;;;;;5036402;28;20053;-72
2023/12/17 12:19:59;;;;;;;1.88;1.75;;;;;;;;;;5038807;28;20119;-72
2023/12/17 12:22:28;;;;;;;4.00;3.03;;;;;;;;;;5020035;28;20056;-72
2023/12/17 12:24:56;;;;;;;1.45;1.40;;;;;;;;;;5031543;28;20104;-74
2023/12/17 12:27:24;;;;;;;4.32;3.28;;;;;;;;;;5036376;28;20061;-73
2023/12/17 12:29:52;;;;;;;7.78;3.25;;;;;;;;;;5034934;28;20045;-72
2023/12/17 12:32:30;;;;;;;2.35;1.67;;;;;;;;;;5030313;28;20093;-73
2023/12/17 12:34:59;;;;;;;0.95;0.95;;;;;;;;;;5020973;28;20056;-73
2023/12/17 12:37:33;;;;;;;1.38;1.27;;;;;;;;;;5035614;28;20115;-72
2023/12/17 12:40:01;;;;;;;1.25;1.23;;;;;;;;;;5033098;28;20041;-73
2023/12/17 12:42:36;;;;;;;15.48;8.00;;;;;;;;;;5014003;28;20049;-73
2023/12/17 12:45:03;;;;;;;4.07;2.85;;;;;;;;;;5016806;28;20125;-73
2023/12/17 12:47:33;;;;;;;3.30;1.83;;;;;;;;;;5019955;28;21008;-73
2023/12/17 12:50:05;;;;;;;2.83;2.17;;;;;;;;;;5020171;28;20037;-73
2023/12/17 12:52:34;;;;;;;1.27;1.17;;;;;;;;;;5034337;28;20060;-73
2023/12/17 12:55:03;;;;;;;0.80;0.80;;;;;;;;;;5022769;28;20053;-73
2023/12/17 12:57:31;;;;;;;3.20;2.42;;;;;;;;;;5018760;28;20376;-73
2023/12/17 13:00:02;;;;;;;3.70;1.40;;;;;;;;;;5037244;28;20045;-73
2023/12/17 13:02:33;;;;;;;0.68;0.68;;;;;;;;;;5022448;28;20099;-73
2023/12/17 13:05:01;;;;;;;3.88;3.53;;;;;;;;;;5043543;28;20057;-72
2023/12/17 13:07:29;;;;;;;1.50;1.42;;;;;;;;;;5043089;28;20120;-73
2023/12/17 13:09:56;;;;;;;11.00;5.80;;;;;;;;;;5044828;28;20630;-73
2023/12/17 13:12:38;;;;;;;4.07;3.35;;;;;;;;;;5045316;28;20052;-73
2023/12/17 13:15:06;;;;;;;7.72;4.13;;;;;;;;;;5044046;28;20044;-73
2023/12/17 13:17:33;;;;;;;3.30;3.00;;;;;;;;;;5046083;28;20083;-71
2023/12/17 13:20:02;;;;;;;2.13;1.23;;;;;;;;;;5026351;28;20699;-73
2023/12/17 13:22:30;;;;;;;2.38;1.35;;;;;;;;;;5042394;28;20061;-73
2023/12/17 13:24:57;;;;;;;9.32;5.47;;;;;;;;;;5041104;28;20134;-72
2023/12/17 13:27:25;;;;;;;1.30;0.70;;;;;;;;;;5021861;28;20044;-72
2023/12/17 13:29:53;;;;;;;2.40;2.05;;;;;;;;;;5036945;28;20162;-72
2023/12/17 13:32:21;;;;;;;2.25;1.92;;;;;;;;;;5037281;28;20195;-74
2023/12/17 13:34:48;;;;;;;1.90;1.40;;;;;;;;;;5035107;28;20075;-72
2023/12/17 13:37:15;;;;;;;1.40;1.30;;;;;;;;;;5037292;28;20071;-72
2023/12/17 13:39:43;;;;;;;2.00;1.90;;;;;;;;;;5040710;28;20049;-73
2023/12/17 13:42:10;;;;;;;2.65;2.38;;;;;;;;;;5044312;28;20045;-73
2023/12/17 13:44:38;;;;;;;8.98;3.17;;;;;;;;;;5043895;28;20049;-72
2023/12/17 13:47:06;;;;;;;2.70;1.17;;;;;;;;;;5043900;28;20057;-73
2023/12/17 13:49:35;;;;;;;1.77;0.93;;;;;;;;;;5040589;28;20045;-73
2023/12/17 13:52:06;;;;;;;0.82;0.82;;;;;;;;;;5041408;28;20529;-73
2023/12/17 13:54:33;;;;;;;0.85;0.85;;;;;;;;;;5045801;28;20059;-73
2023/12/17 13:57:02;;;;;;;3.10;2.67;;;;;;;;;;5043525;28;20072;-73
2023/12/17 13:59:30;;;;;;;2.85;1.58;;;;;;;;;;5019840;28;20084;-72
2023/12/17 14:01:58;;;;;;;0.63;0.63;;;;;;;;;;5046534;28;20082;-72
2023/12/17 14:04:25;;;;;;;2.22;1.70;;;;;;;;;;5027628;28;20044;-73
2023/12/17 14:06:53;;;;;;;0.85;0.85;;;;;;;;;;5044403;28;20048;-72
2023/12/17 14:09:22;;;;;;;3.20;2.15;;;;;;;;;;5040637;28;20073;-72
2023/12/17 14:11:49;;;;;;;1.38;1.33;;;;;;;;;;5039327;28;20407;-72
2023/12/17 14:14:17;;;;;;;2.72;2.42;;;;;;;;;;5046946;28;20491;-73
2023/12/17 14:16:44;;;;;;;4.50;3.33;;;;;;;;;;5042785;28;20059;-73
2023/12/17 14:19:12;;;;;;;1.58;1.30;;;;;;;;;;5034977;28;20063;-72
2023/12/17 14:21:40;;;;;;;4.57;2.70;;;;;;;;;;5035587;28;20087;-73
2023/12/17 14:24:08;;;;;;;1.42;1.35;;;;;;;;;;5015603;28;20057;-73
2023/12/17 14:26:35;;;;;;;4.88;1.10;;;;;;;;;;5034891;28;20053;-73
2023/12/17 14:29:03;;;;;;;2.97;2.65;;;;;;;;;;5039539;28;20037;-72
2023/12/17 14:31:31;;;;;;;1.65;1.58;;;;;;;;;;5042065;28;20052;-73
2023/12/17 14:34:00;;;;;;;1.90;1.80;;;;;;;;;;5041766;28;20103;-68
2023/12/17 14:36:37;;;;;;;15.25;7.20;;;;;;;;;;5041957;28;20410;-69
2023/12/17 14:39:08;;;;;;;18.38;8.73;;;;;;;;;;5037346;28;20104;-69
2023/12/17 14:41:38;;;;;;;1.35;1.30;;;;;;;;;;5037159;28;20045;-67
2023/12/17 14:44:06;;;;;;;8.80;4.53;;;;;;;;;;5037175;28;20053;-73
2023/12/17 14:46:34;;;;;;;1.52;1.42;;;;;;;;;;5039838;28;20463;-73
2023/12/17 14:49:01;;;;;;;5.35;1.90;;;;;;;;;;5035743;28;20041;-73
2023/12/17 14:51:29;;;;;;;3.10;1.17;;;;;;;;;;5039017;28;20065;-73
2023/12/17 14:53:59;;;;;;;0.22;0.22;;;;;;;;;;5018228;28;20065;-73